sensor_id;sensor_type;location;lat;lon;timestamp;P1;durP1;ratioP1;P2;durP2;ratioP2
8331;SDS011;4203;48.144;14.118;2023-11-19T13:16:53;10.07;;;7.13;;
8331;SDS011;4203;48.144;14.118;2023-11-19T13:19:20;6.97;;;5.53;;
8331;SDS011;4203;48.144;14.118;2023-11-19T13:21:49;6.15;;;5.03;;
8331;SDS011;4203;48.144;14.118;2023-11-19T13:24:16;4.22;;;3.83;;
8331;SDS011;4203;48.144;14.118;2023-11-19T13:26:43;4.55;;;4.15;;
8331;SDS011;4203;48.144;14.118;2023-11-19T13:29:11;5.68;;;4.60;;
8331;SDS011;4203;48.144;14.118;2023-11-19T13:31:38;3.70;;;3.40;;
8331;SDS011;4203;48.144;14.118;2023-11-19T13:34:07;3.03;;;2.92;;
8331;SDS011;4203;48.144;14.118;2023-11-19T13:36:34;2.50;;;2.40;;
8331;SDS011;4203;48.144;14.118;2023-11-19T13:39:02;2.30;;;2.20;;
8331;SDS011;4203;48.144;14.118;2023-11-19T13:41:29;2.88;;;2.67;;
8331;SDS011;4203;48.144;14.118;2023-11-19T13:43:56;2.42;;;2.33;;
8331;SDS011;4203;48.144;14.118;2023-11-19T13:52:23;3.17;;;2.97;;
8331;SDS011;4203;48.144;14.118;2023-11-19T13:55:09;3.20;;;3.00;;
8331;SDS011;4203;48.144;14.118;2023-11-19T13:58:03;3.65;;;3.45;;
8331;SDS011;4203;48.144;14.118;2023-11-19T15:14:29;4.53;;;4.13;;
8331;SDS011;4203;48.144;14.118;2023-11-19T15:17:10;17.33;;;9.52;;
8331;SDS011;4203;48.144;14.118;2023-11-19T15:20:12;27.95;;;12.93;;
8331;SDS011;4203;48.144;14.118;2023-11-19T15:22:48;17.10;;;9.77;;
8331;SDS011;4203;48.144;14.118;2023-11-19T15:25:33;11.00;;;7.13;;
8331;SDS011;4203;48.144;14.118;2023-11-19T15:31:18;5.85;;;4.80;;
8331;SDS011;4203;48.144;14.118;2023-11-19T15:33:56;5.60;;;4.93;;
8331;SDS011;4203;48.144;14.118;2023-11-19T15:36:56;6.97;;;5.80;;
8331;SDS011;4203;48.144;14.118;2023-11-19T15:39:29;17.65;;;10.20;;
8331;SDS011;4203;48.144;14.118;2023-11-19T15:42:04;21.33;;;10.73;;
8331;SDS011;4203;48.144;14.118;2023-11-19T15:44:47;51.87;;;18.37;;
8331;SDS011;4203;48.144;14.118;2023-11-19T15:47:24;13.70;;;9.23;;
8331;SDS011;4203;48.144;14.118;2023-11-19T15:50:02;10.60;;;7.87;;
8331;SDS011;4203;48.144;14.118;2023-11-19T15:52:35;9.40;;;7.23;;
8331;SDS011;4203;48.144;14.118;2023-11-19T16:21:25;1.50;;;1.50;;
8331;SDS011;4203;48.144;14.118;2023-11-19T16:23:57;2.08;;;1.45;;
8331;SDS011;4203;48.144;14.118;2023-11-19T16:26:32;1.80;;;1.75;;
8331;SDS011;4203;48.144;14.118;2023-11-19T16:29:09;13.45;;;9.35;;
8331;SDS011;4203;48.144;14.118;2023-11-19T16:31:54;9.45;;;6.72;;
8331;SDS011;4203;48.144;14.118;2023-11-19T16:34:37;6.55;;;5.70;;
8331;SDS011;4203;48.144;14.118;2023-11-19T16:38:04;2.10;;;1.98;;
8331;SDS011;4203;48.144;14.118;2023-11-19T16:41:06;6.90;;;6.20;;
8331;SDS011;4203;48.144;14.118;2023-11-19T16:43:49;13.15;;;10.50;;
8331;SDS011;4203;48.144;14.118;2023-11-19T16:53:18;18.33;;;11.73;;
8331;SDS011;4203;48.144;14.118;2023-11-19T16:58:59;10.70;;;8.77;;
8331;SDS011;4203;48.144;14.118;2023-11-19T17:02:04;13.77;;;8.27;;
8331;SDS011;4203;48.144;14.118;2023-11-19T17:05:21;12.75;;;9.52;;
8331;SDS011;4203;48.144;14.118;2023-11-19T17:14:42;1.67;;;1.55;;
